Time;durP1;ratioP1;P1;durP2;ratioP2;P2;SDS_P1;SDS_P2;PMS_P1;PMS_P2;Temp;Humidity;BMP_temperature;BMP_pressure;BME280_temperature;BME280_humidity;BME280_pressure;Samples;Min_cycle;Max_cycle;Signal;HPM_P1;HPM_P2
2022/12/09 00:00:33;;;;;;;26.73;14.80;;;;;;;7.15;78.49;94516.16;4162677;28;20445;-54
2022/12/09 00:02:35;;;;;;;24.48;14.23;;;;;;;7.22;77.69;94513.00;4155401;28;20093;-55
2022/12/09 00:04:37;;;;;;;23.58;14.32;;;;;;;7.17;78.09;94503.81;4150199;28;20148;-54
2022/12/09 00:06:39;;;;;;;23.98;14.60;;;;;;;7.12;78.54;94510.41;4148757;28;20072;-56
2022/12/09 00:08:41;;;;;;;24.20;14.05;;;;;;;7.10;77.92;94523.59;4147360;28;20049;-57
2022/12/09 00:10:43;;;;;;;25.60;14.07;;;;;;;7.11;78.48;94517.41;4146884;28;20115;-54
2022/12/09 00:12:45;;;;;;;23.52;13.93;;;;;;;7.15;77.95;94510.16;4172963;28;20132;-55
2022/12/09 00:14:47;;;;;;;23.60;14.40;;;;;;;7.23;78.29;94520.69;4158147;28;20211;-53
2022/12/09 00:16:49;;;;;;;21.20;13.35;;;;;;;7.29;77.67;94514.91;4154766;28;20459;-53
2022/12/09 00:18:51;;;;;;;22.30;12.63;;;;;;;7.37;77.67;94511.56;4153479;28;20058;-53
2022/12/09 00:20:53;;;;;;;22.58;13.45;;;;;;;7.37;77.03;94516.78;4160760;28;20053;-57
2022/12/09 00:22:56;;;;;;;21.55;13.75;;;;;;;7.42;77.18;94518.94;4154585;28;20140;-54
2022/12/09 00:24:58;;;;;;;20.55;13.50;;;;;;;7.45;77.22;94529.09;4161778;28;20094;-57
2022/12/09 00:26:59;;;;;;;20.30;13.13;;;;;;;7.50;77.21;94530.28;4161199;28;20410;-54
2022/12/09 00:29:02;;;;;;;20.45;13.38;;;;;;;7.46;76.58;94531.53;4147337;28;20049;-56
2022/12/09 00:31:05;;;;;;;25.35;13.55;;;;;;;7.50;77.20;94521.66;4160307;28;20053;-56
2022/12/09 00:33:06;;;;;;;23.00;14.48;;;;;;;7.54;76.98;94523.00;4155027;28;20056;-55
2022/12/09 00:35:08;;;;;;;20.17;13.27;;;;;;;7.58;76.90;94516.53;4156504;28;20121;-56
2022/12/09 00:37:10;;;;;;;22.38;13.65;;;;;;;7.64;76.78;94518.56;4148725;28;20862;-55
2022/12/09 00:39:12;;;;;;;18.77;12.68;;;;;;;7.63;76.97;94529.94;4162161;28;20109;-56
2022/12/09 00:41:15;;;;;;;21.50;13.63;;;;;;;7.66;77.29;94527.06;4149517;28;20081;-55
2022/12/09 00:43:17;;;;;;;24.48;13.43;;;;;;;7.69;76.62;94531.97;4161261;28;20056;-53
2022/12/09 00:45:19;;;;;;;25.58;13.38;;;;;;;7.71;76.25;94529.25;4155979;28;20053;-54
2022/12/09 00:47:20;;;;;;;22.58;13.55;;;;;;;7.43;76.87;94523.22;4152430;28;20508;-48
2022/12/09 00:49:22;;;;;;;25.85;12.63;;;;;;;7.43;77.07;94531.03;4161869;28;20479;-52
2022/12/09 00:51:24;;;;;;;23.33;13.10;;;;;;;7.44;77.72;94530.84;4171651;28;20108;-53
2022/12/09 00:53:26;;;;;;;23.42;13.68;;;;;;;7.46;77.76;94528.13;4158245;28;20207;-55
2022/12/09 00:55:28;;;;;;;27.45;13.38;;;;;;;7.52;77.10;94523.16;4157924;28;20354;-55
2022/12/09 00:57:30;;;;;;;26.10;13.88;;;;;;;7.56;77.86;94528.91;4157861;28;20735;-56
2022/12/09 00:59:32;;;;;;;22.67;13.77;;;;;;;7.62;77.09;94514.47;4160125;28;20116;-55
2022/12/09 01:01:33;;;;;;;24.58;13.25;;;;;;;7.62;77.02;94512.69;4157820;28;20050;-55
2022/12/09 01:03:35;;;;;;;22.90;13.63;;;;;;;7.64;76.83;94512.53;4159912;28;20072;-56
2022/12/09 01:05:37;;;;;;;21.58;13.32;;;;;;;7.65;76.33;94522.00;4164073;28;20452;-56
2022/12/09 01:07:39;;;;;;;25.73;14.55;;;;;;;7.65;76.68;94514.19;4178421;28;20139;-54
2022/12/09 01:09:41;;;;;;;21.83;14.40;;;;;;;7.27;78.10;94492.53;4177140;28;20158;-58
2022/12/09 01:11:43;;;;;;;24.27;14.25;;;;;;;7.31;78.71;94493.88;4178009;28;20057;-56
2022/12/09 01:13:45;;;;;;;23.35;14.07;;;;;;;7.33;78.80;94505.81;4163118;28;20168;-54
2022/12/09 01:15:47;;;;;;;23.10;14.13;;;;;;;7.38;78.74;94505.41;4150424;28;20080;-52
2022/12/09 01:17:49;;;;;;;22.27;13.57;;;;;;;7.48;78.63;94497.53;4177686;28;20583;-55
2022/12/09 01:19:51;;;;;;;23.85;14.48;;;;;;;7.53;77.94;94490.09;4177327;28;20057;-55
2022/12/09 01:21:54;;;;;;;26.33;14.13;;;;;;;7.62;77.82;94501.44;4177709;28;20573;-54
2022/12/09 01:23:56;;;;;;;24.97;13.73;;;;;;;7.29;78.32;94507.09;4172083;28;20612;-54
2022/12/09 01:25:58;;;;;;;24.60;14.55;;;;;;;7.15;79.06;94503.16;4173015;28;20121;-56
2022/12/09 01:27:59;;;;;;;26.85;15.40;;;;;;;7.10;79.29;94514.97;4168721;28;20044;-57
2022/12/09 01:30:01;;;;;;;25.30;15.00;;;;;;;7.13;79.09;94525.09;4169530;28;20474;-61
2022/12/09 01:32:03;;;;;;;23.52;14.13;;;;;;;7.14;78.87;94524.97;4169204;28;20481;-55
2022/12/09 01:34:06;;;;;;;22.33;14.75;;;;;;;7.17;79.00;94519.47;4176996;28;20089;-54
2022/12/09 01:36:15;;;;;;;25.00;13.68;;;;;;;6.95;79.42;94518.03;4176330;28;20494;-57
2022/12/09 01:38:16;;;;;;;23.95;14.15;;;;;;;6.92;79.98;94520.88;4167183;28;20049;-53
2022/12/09 01:40:18;;;;;;;27.63;15.23;;;;;;;7.00;80.21;94514.19;4167505;28;20556;-53
2022/12/09 01:42:22;;;;;;;23.38;14.82;;;;;;;7.11;80.00;94509.59;4169169;28;20059;-58
2022/12/09 01:44:25;;;;;;;22.63;14.25;;;;;;;7.20;79.38;94497.50;4166854;28;20139;-55
2022/12/09 01:46:27;;;;;;;26.80;15.52;;;;;;;7.30;78.78;94505.28;4174097;28;20063;-52
2022/12/09 01:48:37;;;;;;;23.58;15.05;;;;;;;7.34;78.63;94501.44;4171056;28;20059;-57
2022/12/09 01:50:45;;;;;;;23.92;15.25;;;;;;;7.36;78.71;94502.13;4170085;28;20456;-55
2022/12/09 01:52:48;;;;;;;21.92;13.73;;;;;;;7.39;78.48;94509.63;4159287;28;20452;-54
2022/12/09 01:54:51;;;;;;;26.48;14.50;;;;;;;7.33;78.32;94499.78;4157814;28;20508;-55
2022/12/09 01:56:54;;;;;;;24.08;13.90;;;;;;;7.25;78.84;94515.31;4154925;28;20418;-53
2022/12/09 01:58:59;;;;;;;23.25;14.30;;;;;;;7.23;78.66;94510.25;4166626;28;20430;-53
2022/12/09 02:01:01;;;;;;;24.48;14.00;;;;;;;7.11;78.92;94509.59;4174941;28;20075;-50
2022/12/09 02:03:04;;;;;;;25.42;14.98;;;;;;;7.02;79.18;94499.22;4172267;28;20076;-59
2022/12/09 02:05:07;;;;;;;25.23;16.85;;;;;;;6.90;78.68;94508.97;4159693;28;20111;-55
2022/12/09 02:07:10;;;;;;;23.38;14.95;;;;;;;6.93;79.68;94509.53;4157168;28;20065;-53
2022/12/09 02:09:12;;;;;;;23.57;14.40;;;;;;;7.01;79.54;94500.19;4152982;28;20084;-55
2022/12/09 02:11:51;;;;;;;27.25;16.30;;;;;;;7.12;79.09;94493.03;4145664;28;20693;-53
2022/12/09 02:14:04;;;;;;;29.48;16.25;;;;;;;7.20;79.13;94492.28;4144369;28;20127;-54
2022/12/09 02:16:09;;;;;;;29.42;16.77;;;;;;;7.21;78.63;94483.53;4154984;28;20049;-53
2022/12/09 02:18:40;;;;;;;26.65;15.75;;;;;;;7.23;78.59;94492.03;4151579;28;20050;-54
2022/12/09 02:20:51;;;;;;;23.60;14.40;;;;;;;7.24;77.73;94485.84;4153067;28;20062;-54
2022/12/09 02:23:05;;;;;;;30.35;17.00;;;;;;;7.23;77.83;94479.00;4158491;28;20052;-54
2022/12/09 02:25:27;;;;;;;25.27;15.80;;;;;;;7.28;78.16;94492.41;4175661;28;20051;-55
2022/12/09 02:27:36;;;;;;;24.73;15.13;;;;;;;7.27;78.55;94484.72;4155161;28;20045;-55
2022/12/09 02:29:57;;;;;;;25.20;14.60;;;;;;;7.32;78.27;94493.75;4160423;28;20040;-53
2022/12/09 02:32:10;;;;;;;23.83;14.90;;;;;;;7.16;77.98;94476.16;4168286;28;20546;-55
2022/12/09 02:34:26;;;;;;;27.45;14.88;;;;;;;7.05;79.31;94472.88;4162678;28;20166;-55
2022/12/09 02:36:34;;;;;;;25.65;15.88;;;;;;;7.05;79.26;94491.13;4156109;28;20053;-57
2022/12/09 02:38:39;;;;;;;23.42;14.52;;;;;;;6.95;79.45;94488.56;4161444;28;20143;-57
2022/12/09 02:40:49;;;;;;;25.20;15.25;;;;;;;6.79;79.42;94483.94;4173199;28;20045;-54
2022/12/09 02:42:52;;;;;;;22.73;13.88;;;;;;;6.68;79.95;94492.72;4162201;28;21026;-54
2022/12/09 02:44:55;;;;;;;22.23;14.52;;;;;;;6.76;80.65;94505.88;4173906;28;20426;-53
2022/12/09 02:46:58;;;;;;;19.65;12.57;;;;;;;6.86;80.14;94510.22;4175428;28;20057;-55
2022/12/09 02:49:00;;;;;;;22.60;13.73;;;;;;;6.94;80.20;94516.38;4148421;28;20112;-55
2022/12/09 02:51:05;;;;;;;26.15;15.18;;;;;;;7.04;79.44;94516.34;4157954;28;20123;-55
2022/12/09 02:53:10;;;;;;;22.90;14.27;;;;;;;7.16;79.18;94514.38;4152304;28;20077;-55
2022/12/09 02:55:13;;;;;;;25.35;15.15;;;;;;;7.24;78.77;94511.88;4178000;28;20044;-58
2022/12/09 02:57:18;;;;;;;26.25;15.10;;;;;;;7.28;78.35;94518.47;4177572;28;20122;-53
2022/12/09 02:59:46;;;;;;;27.23;15.88;;;;;;;7.26;77.83;94509.97;4175753;28;20053;-53
2022/12/09 03:01:59;;;;;;;28.67;15.90;;;;;;;7.30;78.13;94505.28;4179300;28;20045;-55
2022/12/09 03:04:01;;;;;;;27.48;16.13;;;;;;;7.27;78.33;94495.13;4178570;28;20546;-50
2022/12/09 03:06:07;;;;;;;26.42;15.02;;;;;;;7.25;78.25;94497.06;4178557;28;20477;-57
2022/12/09 03:08:27;;;;;;;25.77;15.15;;;;;;;7.27;78.48;94510.78;4173605;28;20100;-55
2022/12/09 03:10:29;;;;;;;25.73;15.25;;;;;;;7.31;78.41;94523.41;4168701;28;20049;-54
2022/12/09 03:12:32;;;;;;;22.67;14.52;;;;;;;7.23;77.88;94512.03;4177770;28;20061;-56
2022/12/09 03:14:38;;;;;;;27.80;15.85;;;;;;;6.99;78.66;94510.75;4176194;28;20041;-53
2022/12/09 03:16:52;;;;;;;22.30;14.27;;;;;;;6.94;79.69;94513.75;4160684;28;20133;-55
2022/12/09 03:18:59;;;;;;;25.52;14.23;;;;;;;7.01;80.09;94515.81;4156175;28;20129;-56
2022/12/09 03:21:02;;;;;;;24.30;14.70;;;;;;;7.07;79.70;94508.25;4147731;28;20093;-53
2022/12/09 03:23:05;;;;;;;21.95;13.70;;;;;;;7.18;79.66;94509.84;4159597;28;20049;-57
2022/12/09 03:25:08;;;;;;;25.13;15.23;;;;;;;7.22;78.78;94510.38;4162889;28;20087;-56
2022/12/09 03:27:13;;;;;;;27.20;16.08;;;;;;;7.23;78.39;94510.25;4167279;28;20285;-55
2022/12/09 03:29:18;;;;;;;24.55;15.52;;;;;;;7.21;78.62;94500.94;4161043;28;20061;-56
2022/12/09 03:31:22;;;;;;;27.48;15.02;;;;;;;7.11;78.76;94512.22;4169107;28;20052;-54
2022/12/09 03:33:25;;;;;;;24.95;14.43;;;;;;;7.10;78.74;94496.75;4169932;28;20049;-53
2022/12/09 03:35:43;;;;;;;24.40;14.35;;;;;;;6.79;80.36;94476.13;4168827;28;20049;-53
2022/12/09 03:37:46;;;;;;;22.30;14.38;;;;;;;6.79;80.55;94496.13;4153459;28;20061;-56
2022/12/09 03:39:48;;;;;;;28.88;14.30;;;;;;;6.84;80.93;94493.91;4164976;28;20406;-53
2022/12/09 03:41:54;;;;;;;27.08;14.60;;;;;;;6.80;80.65;94476.94;4157404;28;20060;-55
2022/12/09 03:44:08;;;;;;;25.95;14.55;;;;;;;6.78;81.14;94481.50;4159826;28;20053;-53
2022/12/09 03:46:10;;;;;;;23.58;15.20;;;;;;;6.82;81.24;94490.63;4158865;28;20084;-53
2022/12/09 03:48:12;;;;;;;25.23;13.38;;;;;;;6.94;81.06;94484.31;4156793;28;20058;-53
2022/12/09 03:50:13;;;;;;;26.15;13.77;;;;;;;6.66;81.00;94478.22;4153470;28;20119;-54
2022/12/09 03:52:44;;;;;;;25.48;15.02;;;;;;;6.64;81.69;94490.53;4151438;28;20116;-55
2022/12/09 03:54:50;;;;;;;23.08;13.55;;;;;;;6.80;81.79;94489.94;4157245;28;20061;-55
2022/12/09 03:56:53;;;;;;;23.67;13.85;;;;;;;6.93;81.46;94486.09;4154855;28;20129;-58
2022/12/09 03:58:57;;;;;;;27.13;14.23;;;;;;;7.01;80.66;94501.00;4161104;28;20045;-53
2022/12/09 04:01:00;;;;;;;28.92;13.40;;;;;;;7.08;80.26;94490.84;4164025;28;20053;-53
2022/12/09 04:03:03;;;;;;;26.45;13.70;;;;;;;7.02;80.12;94494.03;4159866;28;20069;-54
2022/12/09 04:05:06;;;;;;;31.95;13.40;;;;;;;6.86;80.84;94503.25;4157797;28;20063;-52
2022/12/09 04:07:09;;;;;;;23.33;12.70;;;;;;;6.97;81.36;94500.47;4160882;28;20057;-57
2022/12/09 04:09:11;;;;;;;23.00;12.45;;;;;;;7.08;80.78;94502.09;4159901;28;20115;-57
2022/12/09 04:11:13;;;;;;;28.58;14.75;;;;;;;7.17;80.40;94493.41;4156505;28;20109;-56
2022/12/09 04:13:15;;;;;;;25.58;14.65;;;;;;;7.22;79.78;94498.19;4166224;28;20057;-54
2022/12/09 04:15:17;;;;;;;29.55;15.35;;;;;;;7.03;79.46;94493.03;4162857;28;20068;-55
2022/12/09 04:17:19;;;;;;;25.65;13.75;;;;;;;6.96;80.34;94493.59;4162372;28;20549;-53
2022/12/09 04:19:21;;;;;;;27.10;14.70;;;;;;;6.94;80.41;94494.72;4166360;28;20060;-53
2022/12/09 04:21:23;;;;;;;26.05;14.85;;;;;;;6.86;80.52;94505.84;4170217;28;20152;-56
2022/12/09 04:23:24;;;;;;;25.65;15.02;;;;;;;6.91;80.44;94501.03;4174822;28;20078;-56
2022/12/09 04:25:26;;;;;;;29.35;14.25;;;;;;;6.89;80.69;94489.13;4168623;28;20370;-56
2022/12/09 04:27:28;;;;;;;28.58;14.77;;;;;;;6.91;80.76;94498.44;4159056;28;20108;-56
2022/12/09 04:29:30;;;;;;;34.58;14.73;;;;;;;6.97;80.67;94510.06;4157233;28;20088;-59
2022/12/09 04:31:32;;;;;;;23.27;14.00;;;;;;;7.05;80.94;94506.75;4161974;28;20045;-54
2022/12/09 04:33:34;;;;;;;29.52;13.82;;;;;;;6.90;80.24;94504.59;4158937;28;20515;-55
2022/12/09 04:35:36;;;;;;;27.38;15.43;;;;;;;6.90;80.84;94514.19;4146104;28;20557;-55
2022/12/09 04:37:37;;;;;;;26.63;14.48;;;;;;;6.96;80.57;94511.84;4155965;28;20057;-57
2022/12/09 04:39:40;;;;;;;27.38;15.70;;;;;;;6.79;80.62;94506.56;4161266;28;20143;-55
2022/12/09 04:41:42;;;;;;;28.58;15.52;;;;;;;6.79;80.94;94507.34;4154592;28;20451;-56
2022/12/09 04:43:44;;;;;;;24.88;14.95;;;;;;;6.90;81.62;94509.78;4172626;28;20053;-55
2022/12/09 04:45:46;;;;;;;26.90;14.07;;;;;;;6.98;80.77;94499.50;4176948;28;20056;-58
2022/12/09 04:47:48;;;;;;;26.40;14.75;;;;;;;7.02;80.37;94476.59;4172638;28;20069;-53
2022/12/09 04:49:50;;;;;;;25.45;14.85;;;;;;;7.00;80.22;94493.34;4162096;28;20054;-52
2022/12/09 04:51:52;;;;;;;29.42;14.52;;;;;;;6.94;80.12;94516.38;4161940;28;20192;-52
2022/12/09 04:53:54;;;;;;;25.02;14.60;;;;;;;6.94;80.28;94498.13;4151133;28;20057;-56
2022/12/09 04:56:09;;;;;;;28.08;12.38;;;;;;;6.68;81.22;94510.13;4159886;28;20513;-55
2022/12/09 04:58:11;;;;;;;26.92;14.43;;;;;;;6.72;81.37;94522.72;4178330;28;20202;-54
2022/12/09 05:00:14;;;;;;;22.00;13.85;;;;;;;6.81;81.60;94515.03;4174630;28;20756;-56
2022/12/09 05:02:16;;;;;;;23.35;13.95;;;;;;;6.92;81.58;94515.69;4165444;28;20057;-54
2022/12/09 05:04:18;;;;;;;22.42;13.80;;;;;;;7.03;81.18;94508.66;4164788;28;20350;-56
2022/12/09 05:06:20;;;;;;;24.88;15.20;;;;;;;7.12;80.94;94507.81;4177522;28;20738;-54
2022/12/09 05:08:22;;;;;;;24.30;13.48;;;;;;;7.24;80.22;94517.09;4152199;28;20045;-55
2022/12/09 05:10:32;;;;;;;26.90;13.98;;;;;;;7.31;79.84;94512.13;4177624;28;20057;-56
2022/12/09 05:12:34;;;;;;;28.15;14.05;;;;;;;7.30;79.29;94510.50;4165916;28;20049;-57
2022/12/09 05:14:36;;;;;;;29.73;14.38;;;;;;;7.24;79.29;94506.69;4174581;28;20071;-56
2022/12/09 05:16:37;;;;;;;28.23;13.77;;;;;;;7.28;79.53;94505.44;4177901;28;20118;-57
2022/12/09 05:18:40;;;;;;;22.08;14.48;;;;;;;7.34;79.61;94510.06;4169664;28;20523;-57
2022/12/09 05:20:42;;;;;;;30.02;16.23;;;;;;;7.35;78.86;94505.66;4161988;28;20172;-57
2022/12/09 05:22:43;;;;;;;28.17;15.25;;;;;;;7.16;79.59;94497.00;4162606;28;20509;-54
2022/12/09 05:24:46;;;;;;;25.35;15.27;;;;;;;7.18;79.31;94502.03;4163632;28;20103;-57
2022/12/09 05:26:48;;;;;;;21.88;13.88;;;;;;;7.24;79.73;94505.84;4177967;28;20048;-55
2022/12/09 05:28:50;;;;;;;22.48;12.90;;;;;;;7.30;79.51;94502.69;4175715;28;20083;-55
2022/12/09 05:30:52;;;;;;;25.15;13.45;;;;;;;7.35;79.47;94508.28;4176740;28;20049;-57
2022/12/09 05:32:54;;;;;;;25.73;15.10;;;;;;;7.30;79.03;94500.91;4157302;28;20057;-59
2022/12/09 05:34:56;;;;;;;31.63;16.67;;;;;;;7.00;79.53;94514.19;4145198;28;20078;-57
2022/12/09 05:36:58;;;;;;;30.27;16.05;;;;;;;6.91;80.25;94513.25;4144834;28;20132;-59
2022/12/09 05:39:00;;;;;;;30.20;15.80;;;;;;;7.00;80.78;94525.41;4171305;28;21134;-59
2022/12/09 05:41:02;;;;;;;32.33;17.17;;;;;;;6.92;80.64;94520.88;4164164;28;20429;-57
2022/12/09 05:43:03;;;;;;;33.78;18.65;;;;;;;6.79;80.61;94538.59;4170914;28;20046;-57
2022/12/09 05:45:06;;;;;;;29.90;17.52;;;;;;;6.83;80.49;94534.75;4159642;28;20530;-53
2022/12/09 05:47:07;;;;;;;31.38;17.98;;;;;;;6.85;79.94;94524.22;4161202;28;20053;-55
2022/12/09 05:49:09;;;;;;;27.83;17.55;;;;;;;6.91;80.21;94532.28;4177518;28;20577;-54
2022/12/09 05:51:20;;;;;;;27.45;17.88;;;;;;;7.01;80.32;94526.22;4177351;28;20072;-55
2022/12/09 05:53:22;;;;;;;30.65;19.08;;;;;;;7.03;79.75;94532.13;4171052;28;20068;-52
2022/12/09 05:55:24;;;;;;;30.05;17.77;;;;;;;7.10;80.19;94533.22;4160443;28;20048;-55
2022/12/09 05:57:26;;;;;;;29.10;17.70;;;;;;;6.95;79.63;94512.81;4155495;28;20471;-54
2022/12/09 05:59:28;;;;;;;28.27;19.63;;;;;;;6.93;79.71;94530.38;4152467;28;20386;-58
2022/12/09 06:01:31;;;;;;;35.90;18.52;;;;;;;6.95;80.61;94525.03;4160918;28;20056;-54
2022/12/09 06:03:33;;;;;;;30.35;18.10;;;;;;;7.03;80.18;94517.31;4153473;28;20056;-55
2022/12/09 06:05:36;;;;;;;28.70;17.93;;;;;;;7.12;80.18;94524.28;4153971;28;20063;-56
2022/12/09 06:07:38;;;;;;;32.20;18.33;;;;;;;7.18;80.03;94512.44;4155172;28;20462;-56
2022/12/09 06:09:43;;;;;;;30.25;17.15;;;;;;;7.20;79.32;94523.56;4160014;28;20061;-56
2022/12/09 06:11:45;;;;;;;27.25;16.65;;;;;;;7.28;79.76;94521.06;4149994;28;20457;-57
2022/12/09 06:13:48;;;;;;;29.73;17.42;;;;;;;7.36;79.34;94520.34;4151278;28;20088;-57
2022/12/09 06:15:50;;;;;;;30.02;18.17;;;;;;;7.32;78.77;94525.03;4144841;28;20391;-52
2022/12/09 06:17:53;;;;;;;32.65;17.83;;;;;;;7.32;79.34;94529.41;4144707;28;20482;-55
2022/12/09 06:19:54;;;;;;;30.63;18.83;;;;;;;7.36;79.51;94533.38;4144413;28;20379;-54
2022/12/09 06:21:56;;;;;;;34.10;20.20;;;;;;;7.43;78.85;94538.84;4153446;28;20049;-54
2022/12/09 06:23:58;;;;;;;31.50;19.98;;;;;;;7.39;78.83;94533.09;4171623;28;20418;-57
2022/12/09 06:26:01;;;;;;;32.92;19.65;;;;;;;7.30;79.36;94526.94;4149502;28;20109;-56
2022/12/09 06:28:03;;;;;;;39.25;21.35;;;;;;;7.23;79.41;94527.66;4148016;28;20053;-55
2022/12/09 06:30:06;;;;;;;36.10;19.70;;;;;;;7.22;79.58;94539.88;4151845;28;20087;-51
2022/12/09 06:32:08;;;;;;;36.33;20.52;;;;;;;7.10;79.61;94546.22;4144880;28;20167;-56
2022/12/09 06:34:10;;;;;;;39.80;22.02;;;;;;;7.00;80.43;94550.63;4145908;28;20041;-57
2022/12/09 06:36:12;;;;;;;37.35;23.45;;;;;;;6.88;80.35;94542.16;4155749;28;20050;-57
2022/12/09 06:38:14;;;;;;;38.75;21.13;;;;;;;6.81;80.97;94544.50;4152687;28;20049;-58
2022/12/09 06:40:16;;;;;;;36.95;21.08;;;;;;;6.88;80.93;94537.78;4148559;28;20132;-57
2022/12/09 06:42:18;;;;;;;34.15;19.80;;;;;;;6.80;80.60;94550.69;4172234;28;20053;-57
2022/12/09 06:44:20;;;;;;;34.55;19.95;;;;;;;6.86;81.02;94560.53;4174968;28;20041;-55
2022/12/09 06:46:26;;;;;;;36.15;21.13;;;;;;;6.80;80.26;94558.50;4176908;28;20044;-54
2022/12/09 06:48:28;;;;;;;34.80;20.58;;;;;;;6.90;80.32;94576.69;4153783;28;20073;-55
2022/12/09 06:50:30;;;;;;;33.50;22.02;;;;;;;7.03;80.47;94568.56;4173066;28;20045;-54
2022/12/09 06:52:32;;;;;;;33.42;21.40;;;;;;;6.75;79.87;94551.09;4176533;28;20052;-58
2022/12/09 06:54:35;;;;;;;36.92;21.50;;;;;;;6.78;80.46;94563.00;4169250;28;20587;-59
2022/12/09 06:56:37;;;;;;;36.83;21.63;;;;;;;6.94;80.43;94567.63;4176829;28;20131;-57
2022/12/09 06:58:40;;;;;;;41.35;22.52;;;;;;;7.12;80.31;94560.75;4174601;28;20057;-55
2022/12/09 07:00:43;;;;;;;39.88;22.08;;;;;;;7.26;80.12;94566.47;4174899;28;20076;-53
2022/12/09 07:02:45;;;;;;;36.83;20.77;;;;;;;7.38;79.47;94558.34;4176770;28;20189;-54
2022/12/09 07:04:52;;;;;;;39.15;21.83;;;;;;;7.39;78.24;94549.53;4175554;28;20132;-54
2022/12/09 07:06:54;;;;;;;36.17;20.80;;;;;;;7.39;77.87;94559.16;4174722;28;20462;-57
2022/12/09 07:08:58;;;;;;;30.45;20.73;;;;;;;7.46;78.46;94557.59;4175652;28;20616;-56
2022/12/09 07:11:01;;;;;;;39.83;21.13;;;;;;;7.57;77.78;94561.81;4176385;28;20064;-58
2022/12/09 07:13:03;;;;;;;38.58;21.73;;;;;;;7.65;77.37;94551.50;4175096;28;20076;-58
2022/12/09 07:15:05;;;;;;;37.40;22.05;;;;;;;7.60;77.83;94543.28;4174615;28;20049;-54
2022/12/09 07:17:14;;;;;;;36.40;22.37;;;;;;;7.63;77.82;94563.84;4175661;28;20114;-56
2022/12/09 07:19:18;;;;;;;32.80;23.00;;;;;;;7.70;77.97;94551.88;4175017;28;20124;-56
2022/12/09 07:21:23;;;;;;;38.33;21.98;;;;;;;7.48;78.37;94549.66;4176366;28;20073;-55
2022/12/09 07:23:26;;;;;;;37.95;22.80;;;;;;;7.56;78.89;94563.59;4168988;28;20413;-57
2022/12/09 07:25:28;;;;;;;37.80;23.48;;;;;;;7.61;78.40;94551.91;4166951;28;20053;-54
2022/12/09 07:27:30;;;;;;;38.80;25.08;;;;;;;7.37;79.19;94554.06;4172487;28;20052;-57
2022/12/09 07:29:32;;;;;;;43.08;24.85;;;;;;;7.47;79.38;94568.88;4174403;28;20081;-55
2022/12/09 07:31:35;;;;;;;43.80;26.50;;;;;;;7.56;78.98;94561.00;4176379;28;20441;-57
2022/12/09 07:33:37;;;;;;;47.45;29.23;;;;;;;7.61;78.44;94565.78;4156778;28;20430;-56
2022/12/09 07:35:39;;;;;;;51.38;32.25;;;;;;;7.69;78.30;94568.47;4144445;28;20056;-59
2022/12/09 07:37:41;;;;;;;58.97;35.42;;;;;;;7.72;77.36;94557.78;4147123;28;20042;-59
2022/12/09 07:39:43;;;;;;;61.95;35.08;;;;;;;7.77;77.67;94568.59;4153861;28;20056;-59
2022/12/09 07:41:51;;;;;;;51.40;32.25;;;;;;;7.83;77.98;94566.34;4170487;28;20053;-57
2022/12/09 07:43:53;;;;;;;55.40;32.17;;;;;;;7.76;77.30;94555.69;4176871;28;20255;-57
2022/12/09 07:45:54;;;;;;;57.72;33.50;;;;;;;7.80;77.54;94576.09;4153856;28;20044;-55
2022/12/09 07:47:57;;;;;;;52.67;33.35;;;;;;;7.88;77.58;94561.53;4171907;28;20045;-56
2022/12/09 07:49:59;;;;;;;57.70;33.33;;;;;;;7.92;77.11;94557.69;4152441;28;20141;-54
2022/12/09 07:52:07;;;;;;;49.28;32.08;;;;;;;7.78;77.67;94559.78;4163506;28;20115;-58
2022/12/09 07:54:14;;;;;;;52.22;32.42;;;;;;;7.88;77.53;94561.53;4171369;28;20345;-55
2022/12/09 07:56:16;;;;;;;47.30;28.77;;;;;;;7.96;77.21;94552.03;4179243;28;20453;-59
2022/12/09 07:58:19;;;;;;;48.60;27.90;;;;;;;7.93;76.83;94539.25;4150866;28;20141;-57
2022/12/09 08:00:21;;;;;;;48.70;26.92;;;;;;;7.64;77.53;94544.66;4145697;28;20408;-55
2022/12/09 08:02:23;;;;;;;41.78;26.08;;;;;;;7.82;77.60;94559.50;4153001;28;20107;-55
2022/12/09 08:04:25;;;;;;;42.13;24.83;;;;;;;7.96;78.13;94559.84;4152331;28;20056;-53
2022/12/09 08:06:28;;;;;;;47.65;26.83;;;;;;;8.13;77.61;94552.16;4148861;28;20053;-54
2022/12/09 08:08:31;;;;;;;42.97;25.88;;;;;;;8.11;76.98;94546.28;4161967;28;20064;-57
2022/12/09 08:10:33;;;;;;;52.92;26.83;;;;;;;8.13;77.71;94547.78;4154281;28;20076;-57
2022/12/09 08:12:35;;;;;;;50.88;26.13;;;;;;;8.24;76.91;94559.81;4157739;28;20049;-56
2022/12/09 08:14:37;;;;;;;44.60;26.23;;;;;;;8.29;76.82;94551.53;4161006;28;20453;-54
2022/12/09 08:16:41;;;;;;;40.58;24.85;;;;;;;8.35;76.19;94556.97;4157051;28;20049;-58
2022/12/09 08:18:44;;;;;;;42.03;22.83;;;;;;;8.40;76.28;94556.53;4156320;28;20053;-53
2022/12/09 08:20:46;;;;;;;44.97;23.65;;;;;;;8.49;76.55;94575.72;4149878;28;20050;-55
2022/12/09 08:22:48;;;;;;;45.03;23.73;;;;;;;8.62;76.18;94568.31;4147633;28;20068;-56
2022/12/09 08:24:50;;;;;;;42.75;25.05;;;;;;;8.69;76.42;94565.94;4165582;28;20049;-53
2022/12/09 08:26:52;;;;;;;52.55;25.80;;;;;;;8.79;75.44;94567.47;4178912;28;20045;-56
2022/12/09 08:28:54;;;;;;;43.00;24.95;;;;;;;8.92;75.69;94569.72;4176857;28;20489;-55
2022/12/09 08:30:57;;;;;;;43.17;23.90;;;;;;;9.06;74.98;94562.31;4149824;28;20440;-56
2022/12/09 08:32:59;;;;;;;47.40;22.65;;;;;;;9.14;74.83;94563.19;4146101;28;20466;-56
2022/12/09 08:35:02;;;;;;;29.33;17.70;;;;;;;9.24;74.09;94563.06;4145877;28;20057;-59
2022/12/09 08:37:04;;;;;;;35.17;17.25;;;;;;;9.36;73.84;94563.66;4157490;28;20124;-58
2022/12/09 08:39:06;;;;;;;43.88;18.35;;;;;;;9.45;73.29;94552.25;4147869;28;20458;-57
2022/12/09 08:41:17;;;;;;;29.73;14.82;;;;;;;9.54;73.41;94553.91;4150314;28;20049;-56
2022/12/09 08:43:19;;;;;;;30.33;12.85;;;;;;;9.32;71.83;94547.44;4153393;28;20224;-59
2022/12/09 08:45:21;;;;;;;31.55;12.68;;;;;;;9.27;71.34;94549.72;4157176;28;20053;-56
2022/12/09 08:47:26;;;;;;;34.17;12.55;;;;;;;9.20;72.61;94549.47;4159587;28;20139;-55
2022/12/09 08:49:28;;;;;;;32.63;13.75;;;;;;;9.02;72.99;94546.13;4145669;28;20058;-55
2022/12/09 08:51:30;;;;;;;41.42;16.25;;;;;;;8.95;73.18;94539.88;4155999;28;20124;-55
2022/12/09 08:53:33;;;;;;;34.50;17.20;;;;;;;9.06;73.32;94539.59;4154314;28;20057;-53
2022/12/09 08:55:38;;;;;;;42.65;17.42;;;;;;;9.18;73.32;94525.31;4145884;28;20056;-57
2022/12/09 08:57:40;;;;;;;46.17;19.02;;;;;;;9.32;72.48;94521.28;4153325;28;20053;-57
2022/12/09 08:59:41;;;;;;;41.78;19.77;;;;;;;9.54;72.69;94519.91;4149061;28;20050;-59
2022/12/09 09:01:46;;;;;;;36.75;19.55;;;;;;;9.69;71.53;94508.88;4160887;28;20594;-56
2022/12/09 09:03:49;;;;;;;48.38;19.45;;;;;;;9.70;71.11;94503.50;4156396;28;20109;-56
2022/12/09 09:05:52;;;;;;;40.55;19.90;;;;;;;9.83;70.69;94503.03;4163552;28;20111;-58
2022/12/09 09:07:54;;;;;;;40.67;18.83;;;;;;;10.00;70.66;94499.50;4177919;28;20355;-58
2022/12/09 09:09:59;;;;;;;42.05;18.90;;;;;;;10.03;70.15;94493.09;4163993;28;20552;-57
2022/12/09 09:12:02;;;;;;;37.40;17.88;;;;;;;10.09;69.98;94491.63;4178233;28;20425;-58
2022/12/09 09:14:06;;;;;;;39.28;17.65;;;;;;;10.20;69.94;94484.31;4176102;28;20060;-57
2022/12/09 09:16:13;;;;;;;34.75;18.80;;;;;;;10.29;69.94;94479.06;4175984;28;20045;-57
2022/12/09 09:18:15;;;;;;;41.63;19.13;;;;;;;10.41;69.75;94485.63;4172526;28;20065;-59
2022/12/09 09:20:18;;;;;;;38.30;17.73;;;;;;;10.43;68.72;94486.31;4170423;28;20079;-59
2022/12/09 09:22:20;;;;;;;38.25;18.98;;;;;;;10.37;68.58;94481.75;4161947;28;20049;-54
2022/12/09 09:24:24;;;;;;;36.10;17.30;;;;;;;10.34;68.78;94471.56;4174708;28;20045;-57
2022/12/09 09:26:29;;;;;;;52.83;31.42;;;;;;;10.20;70.04;94478.25;4177718;28;20060;-57
2022/12/09 09:28:31;;;;;;;53.55;28.70;;;;;;;10.27;70.51;94483.66;4168732;28;20079;-58
2022/12/09 09:30:33;;;;;;;40.45;23.67;;;;;;;10.50;70.13;94465.53;4160151;28;20056;-58
2022/12/09 09:32:36;;;;;;;50.78;26.10;;;;;;;10.54;69.12;94458.97;4162477;28;20159;-58
2022/12/09 09:34:38;;;;;;;49.30;25.67;;;;;;;10.48;68.86;94457.84;4177654;28;20057;-58